LFRTLFRH

Guest
Details From LFRT - Saint Brieuc Armor
To LFRH - Lorient Lann-Bihoue
Flight Number -
Tags generated
Created
Modified
Stats Distance 57 nm / 106 km
Max Altitude 4,800 ft / 1,463 m
Waypoints 3
Social Downloads 1
Likes 0
Share VATSIM

Download

Looking for another format? Having issues loading an existing format? Contact us
Advertisement - Login to hide

Notes

Basic altitude profile: - Ascent Rate: 1500ft/min - Ascent Speed: 250kts - Cruise Altitude: 115ft - Cruise Speed: 420kts - Descent Rate: 1500ft/min - Descent Speed: 250kts Options: - Use NATs: yes - Use PACOTS: yes - Use low airways: yes - Use high airways: yes

Route

LFRT LENSU LFRH

ID Type Via Altitude Latitude Longitude Leg Dist Tot Dist Heading (true) Name
O LFRT APT - 0 ft / 0 m 48.53826˚ -2.85461˚ - 0 nm - Saint Brieuc Armor
LENSU FIX - 4,800 ft / 1,463 m 47.96500˚ -2.96222˚ 34 nm 34 nm 187° / 187° -
O LFRH APT - 0 ft / 0 m 47.76247˚ -3.44091˚ 22 nm 57 nm 238° / 238° Lorient Lann-Bihoue

Altitude Profile

Advertisement - Login to hide

LFRT

Details ICAO LFRT (SBK)
Name Saint Brieuc Armor
Region France
Timezone Europe/Paris (UTC+1.0)
Stats Elevation 452 ft / 138 m (AMSL)
Location 48.538265° -2.854612°
Runways 1
Magnetic Variation 1.052° W

METAR

LFRT 151800Z AUTO 34007KT 9999 FEW047 SCT056 05/03 Q1008

Decode

TAF

Not found

Departure Runways

ID Width Length Bearing (true) Bearing (mag) Surface Threshold Offset Overrun Length
06 148 ft / 45 m 7,214 ft / 2,199 m 58.77° 59.82° Asphalt 0 ft / 0 m 0 ft / 0 m
24 148 ft / 45 m 7,214 ft / 2,199 m 238.79° 239.84° Asphalt 0 ft / 0 m 0 ft / 0 m

LFRH

Details ICAO LFRH (LRT)
Name Lorient Lann-Bihoue
Region France
Timezone Europe/Paris (UTC+1.0)
Stats Elevation 122 ft / 37 m (AMSL)
Location 47.762466° -3.440907°
Runways 2
Magnetic Variation 1.165° W

METAR

LFRH 151800Z AUTO 29005KT 9999 FEW027 05/03 Q1009 NOSIG

Decode

TAF

TAF LFRH 151700Z 1518/1618 32010KT 9999 SCT035 BKN045 BECMG 1518/1520 CAVOK TEMPO 1605/1610 SCT025

Decode

Destination Runways

ID Width Length Bearing (true) Bearing (mag) Surface Threshold Offset Overrun Length
02 148 ft / 45 m 6,895 ft / 2,102 m 16.11° 17.27° Asphalt 0 ft / 0 m 0 ft / 0 m
07 148 ft / 45 m 7,879 ft / 2,401 m 71.70° 72.86° Concrete 0 ft / 0 m 295 ft / 90 m
20 148 ft / 45 m 6,895 ft / 2,102 m 196.12° 197.28° Asphalt 1,411 ft / 430 m 0 ft / 0 m
25 148 ft / 45 m 7,879 ft / 2,401 m 251.72° 252.88° Concrete 568 ft / 173 m 89 ft / 27 m

Approach Navaids

Runway Type Ident Frequency Range Bearing (true) Bearing (mag) Slope Elevation
25 Localiser BH 108.15 MHz 18 nm / 33 km 251.71° 252.87° - 144 ft / 44 m (AMSL)
25 Glidescope BH 108.15 MHz 10 nm / 19 km 251.71° 252.87° 3.00° 196 ft / 60 m (AMSL)